sensor_id;sensor_type;location;lat;lon;timestamp;P1;durP1;ratioP1;P2;durP2;ratioP2
595;SDS011;19946;49.306;11.350;2022-11-12T00:03:06;174.03;;;167.83;;
595;SDS011;19946;49.306;11.350;2022-11-12T00:06:25;186.63;;;179.90;;
595;SDS011;19946;49.306;11.350;2022-11-12T00:09:45;240.67;;;232.50;;
595;SDS011;19946;49.306;11.350;2022-11-12T00:13:04;230.77;;;222.87;;
595;SDS011;19946;49.306;11.350;2022-11-12T00:16:23;224.90;;;217.17;;
595;SDS011;19946;49.306;11.350;2022-11-12T00:19:42;228.17;;;220.30;;
595;SDS011;19946;49.306;11.350;2022-11-12T00:23:00;294.60;;;284.60;;
595;SDS011;19946;49.306;11.350;2022-11-12T00:26:20;253.77;;;245.17;;
595;SDS011;19946;49.306;11.350;2022-11-12T00:29:39;203.43;;;196.40;;
595;SDS011;19946;49.306;11.350;2022-11-12T00:33:02;193.43;;;186.70;;
595;SDS011;19946;49.306;11.350;2022-11-12T00:36:22;152.33;;;146.83;;
595;SDS011;19946;49.306;11.350;2022-11-12T00:39:41;159.03;;;153.23;;
595;SDS011;19946;49.306;11.350;2022-11-12T00:43:00;195.53;;;188.60;;
595;SDS011;19946;49.306;11.350;2022-11-12T00:46:19;277.00;;;267.60;;
595;SDS011;19946;49.306;11.350;2022-11-12T00:49:38;281.97;;;272.47;;
595;SDS011;19946;49.306;11.350;2022-11-12T00:52:57;252.13;;;243.53;;
595;SDS011;19946;49.306;11.350;2022-11-12T00:56:16;252.77;;;244.10;;
595;SDS011;19946;49.306;11.350;2022-11-12T00:59:36;159.97;;;154.20;;
595;SDS011;19946;49.306;11.350;2022-11-12T01:02:55;252.30;;;243.93;;
595;SDS011;19946;49.306;11.350;2022-11-12T01:06:14;181.40;;;175.00;;
595;SDS011;19946;49.306;11.350;2022-11-12T01:09:34;228.07;;;220.27;;
595;SDS011;19946;49.306;11.350;2022-11-12T01:12:53;198.07;;;190.97;;
595;SDS011;19946;49.306;11.350;2022-11-12T01:16:14;214.40;;;206.90;;
595;SDS011;19946;49.306;11.350;2022-11-12T01:19:34;315.40;;;304.87;;
595;SDS011;19946;49.306;11.350;2022-11-12T01:22:53;366.07;;;354.30;;
595;SDS011;19946;49.306;11.350;2022-11-12T01:26:14;345.63;;;334.83;;
595;SDS011;19946;49.306;11.350;2022-11-12T01:29:35;361.07;;;349.67;;
595;SDS011;19946;49.306;11.350;2022-11-12T01:32:55;234.50;;;226.90;;
595;SDS011;19946;49.306;11.350;2022-11-12T01:36:16;206.40;;;199.57;;
595;SDS011;19946;49.306;11.350;2022-11-12T01:39:36;242.30;;;234.60;;
595;SDS011;19946;49.306;11.350;2022-11-12T01:42:56;258.13;;;250.03;;
595;SDS011;19946;49.306;11.350;2022-11-12T01:46:18;223.03;;;215.73;;
595;SDS011;19946;49.306;11.350;2022-11-12T01:49:59;243.20;;;235.43;;
595;SDS011;19946;49.306;11.350;2022-11-12T01:53:51;245.43;;;237.53;;
595;SDS011;19946;49.306;11.350;2022-11-12T02:01:38;308.70;;;299.00;;
595;SDS011;19946;49.306;11.350;2022-11-12T02:05:01;314.97;;;305.17;;
595;SDS011;19946;49.306;11.350;2022-11-12T02:08:22;305.30;;;296.00;;
595;SDS011;19946;49.306;11.350;2022-11-12T02:11:42;177.80;;;171.90;;
595;SDS011;19946;49.306;11.350;2022-11-12T02:15:02;233.67;;;226.20;;
595;SDS011;19946;49.306;11.350;2022-11-12T02:18:21;293.77;;;284.40;;
595;SDS011;19946;49.306;11.350;2022-11-12T02:21:41;239.87;;;231.97;;
595;SDS011;19946;49.306;11.350;2022-11-12T02:25:00;195.53;;;188.83;;
595;SDS011;19946;49.306;11.350;2022-11-12T02:28:19;171.60;;;165.60;;
595;SDS011;19946;49.306;11.350;2022-11-12T02:31:39;151.43;;;146.13;;
595;SDS011;19946;49.306;11.350;2022-11-12T02:34:58;176.00;;;169.70;;
595;SDS011;19946;49.306;11.350;2022-11-12T02:38:17;217.80;;;210.40;;
595;SDS011;19946;49.306;11.350;2022-11-12T02:45:58;134.70;;;130.07;;
595;SDS011;19946;49.306;11.350;2022-11-12T02:49:17;167.17;;;161.27;;
595;SDS011;19946;49.306;11.350;2022-11-12T02:56:28;229.13;;;221.33;;
595;SDS011;19946;49.306;11.350;2022-11-12T02:59:46;221.33;;;213.73;;
595;SDS011;19946;49.306;11.350;2022-11-12T03:03:06;188.23;;;181.53;;
595;SDS011;19946;49.306;11.350;2022-11-12T03:06:26;181.07;;;174.47;;
595;SDS011;19946;49.306;11.350;2022-11-12T03:09:45;246.77;;;238.07;;
595;SDS011;19946;49.306;11.350;2022-11-12T03:13:04;377.53;;;364.83;;
595;SDS011;19946;49.306;11.350;2022-11-12T03:16:24;376.77;;;364.17;;
595;SDS011;19946;49.306;11.350;2022-11-12T03:19:43;172.13;;;165.97;;
595;SDS011;19946;49.306;11.350;2022-11-12T03:23:06;175.57;;;169.27;;
595;SDS011;19946;49.306;11.350;2022-11-12T03:26:26;162.47;;;156.77;;
595;SDS011;19946;49.306;11.350;2022-11-12T03:29:45;180.43;;;174.03;;
595;SDS011;19946;49.306;11.350;2022-11-12T03:33:05;189.17;;;182.40;;
595;SDS011;19946;49.306;11.350;2022-11-12T03:36:25;217.73;;;210.03;;
595;SDS011;19946;49.306;11.350;2022-11-12T03:39:44;237.70;;;229.17;;
595;SDS011;19946;49.306;11.350;2022-11-12T03:43:03;289.07;;;278.53;;
595;SDS011;19946;49.306;11.350;2022-11-12T03:46:22;301.43;;;290.53;;
595;SDS011;19946;49.306;11.350;2022-11-12T03:49:41;385.67;;;371.93;;
595;SDS011;19946;49.306;11.350;2022-11-12T03:53:00;478.60;;;462.03;;
595;SDS011;19946;49.306;11.350;2022-11-12T03:56:19;485.57;;;469.03;;
595;SDS011;19946;49.306;11.350;2022-11-12T03:59:38;482.20;;;466.03;;
595;SDS011;19946;49.306;11.350;2022-11-12T04:06:57;423.47;;;409.47;;
595;SDS011;19946;49.306;11.350;2022-11-12T04:10:35;358.67;;;346.57;;
595;SDS011;19946;49.306;11.350;2022-11-12T04:13:53;343.43;;;331.63;;
595;SDS011;19946;49.306;11.350;2022-11-12T04:17:12;329.63;;;318.20;;
595;SDS011;19946;49.306;11.350;2022-11-12T04:20:50;378.30;;;365.10;;
595;SDS011;19946;49.306;11.350;2022-11-12T04:24:32;324.50;;;313.20;;
595;SDS011;19946;49.306;11.350;2022-11-12T04:28:12;201.33;;;194.17;;
595;SDS011;19946;49.306;11.350;2022-11-12T04:31:31;171.90;;;165.70;;
595;SDS011;19946;49.306;11.350;2022-11-12T04:34:50;236.80;;;228.73;;
595;SDS011;19946;49.306;11.350;2022-11-12T04:38:10;233.63;;;225.57;;
595;SDS011;19946;49.306;11.350;2022-11-12T04:41:28;241.83;;;233.53;;
595;SDS011;19946;49.306;11.350;2022-11-12T04:45:08;269.87;;;260.37;;
595;SDS011;19946;49.306;11.350;2022-11-12T04:48:27;205.20;;;197.87;;
595;SDS011;19946;49.306;11.350;2022-11-12T04:51:47;179.83;;;173.23;;
595;SDS011;19946;49.306;11.350;2022-11-12T04:55:25;206.93;;;199.57;;
595;SDS011;19946;49.306;11.350;2022-11-12T04:58:44;269.47;;;260.10;;
595;SDS011;19946;49.306;11.350;2022-11-12T05:02:03;251.27;;;242.53;;
595;SDS011;19946;49.306;11.350;2022-11-12T05:05:23;223.33;;;215.50;;
595;SDS011;19946;49.306;11.350;2022-11-12T05:08:42;226.90;;;218.90;;
595;SDS011;19946;49.306;11.350;2022-11-12T05:12:01;163.80;;;157.90;;
595;SDS011;19946;49.306;11.350;2022-11-12T05:15:20;125.20;;;120.70;;
595;SDS011;19946;49.306;11.350;2022-11-12T05:18:40;142.83;;;137.83;;
595;SDS011;19946;49.306;11.350;2022-11-12T05:21:59;198.97;;;192.07;;
595;SDS011;19946;49.306;11.350;2022-11-12T05:25:24;188.63;;;181.93;;
595;SDS011;19946;49.306;11.350;2022-11-12T05:32:31;278.83;;;268.93;;
595;SDS011;19946;49.306;11.350;2022-11-12T05:39:24;267.73;;;258.33;;
595;SDS011;19946;49.306;11.350;2022-11-12T05:42:45;273.33;;;263.53;;
595;SDS011;19946;49.306;11.350;2022-11-12T05:46:04;186.23;;;179.37;;
595;SDS011;19946;49.306;11.350;2022-11-12T05:49:23;188.83;;;181.83;;
595;SDS011;19946;49.306;11.350;2022-11-12T05:52:44;204.83;;;197.43;;
595;SDS011;19946;49.306;11.350;2022-11-12T05:56:04;222.23;;;214.33;;
595;SDS011;19946;49.306;11.350;2022-11-12T05:59:23;225.20;;;217.10;;
595;SDS011;19946;49.306;11.350;2022-11-12T06:02:43;242.40;;;233.70;;
595;SDS011;19946;49.306;11.350;2022-11-12T06:06:02;247.47;;;238.53;;
595;SDS011;19946;49.306;11.350;2022-11-12T06:09:21;242.17;;;233.33;;
595;SDS011;19946;49.306;11.350;2022-11-12T06:16:49;375.37;;;361.97;;
595;SDS011;19946;49.306;11.350;2022-11-12T06:20:08;406.87;;;392.53;;
595;SDS011;19946;49.306;11.350;2022-11-12T06:23:28;418.57;;;404.17;;
595;SDS011;19946;49.306;11.350;2022-11-12T06:26:49;393.20;;;379.80;;
595;SDS011;19946;49.306;11.350;2022-11-12T06:30:08;419.53;;;405.07;;
595;SDS011;19946;49.306;11.350;2022-11-12T06:33:35;422.43;;;407.93;;
595;SDS011;19946;49.306;11.350;2022-11-12T06:36:54;407.43;;;393.77;;
595;SDS011;19946;49.306;11.350;2022-11-12T06:40:15;389.10;;;375.90;;
595;SDS011;19946;49.306;11.350;2022-11-12T06:43:35;326.73;;;315.60;;
595;SDS011;19946;49.306;11.350;2022-11-12T06:50:45;203.13;;;196.13;;
595;SDS011;19946;49.306;11.350;2022-11-12T06:54:04;250.30;;;241.80;;
595;SDS011;19946;49.306;11.350;2022-11-12T06:57:24;360.63;;;348.03;;
595;SDS011;19946;49.306;11.350;2022-11-12T07:00:52;352.13;;;340.07;;
595;SDS011;19946;49.306;11.350;2022-11-12T07:04:10;238.20;;;230.07;;
595;SDS011;19946;49.306;11.350;2022-11-12T07:07:30;258.20;;;249.40;;
595;SDS011;19946;49.306;11.350;2022-11-12T07:10:54;239.37;;;231.27;;
595;SDS011;19946;49.306;11.350;2022-11-12T07:14:13;193.87;;;187.07;;
595;SDS011;19946;49.306;11.350;2022-11-12T07:17:33;143.87;;;138.67;;
595;SDS011;19946;49.306;11.350;2022-11-12T07:20:56;215.50;;;208.00;;
595;SDS011;19946;49.306;11.350;2022-11-12T07:24:16;261.43;;;252.47;;
595;SDS011;19946;49.306;11.350;2022-11-12T07:27:35;353.60;;;341.20;;
595;SDS011;19946;49.306;11.350;2022-11-12T07:30:55;370.50;;;357.50;;
595;SDS011;19946;49.306;11.350;2022-11-12T07:34:18;337.27;;;325.27;;
595;SDS011;19946;49.306;11.350;2022-11-12T07:37:37;191.60;;;184.40;;
595;SDS011;19946;49.306;11.350;2022-11-12T07:41:02;273.90;;;264.20;;
595;SDS011;19946;49.306;11.350;2022-11-12T07:44:23;263.03;;;253.57;;
595;SDS011;19946;49.306;11.350;2022-11-12T07:47:42;234.50;;;226.00;;
595;SDS011;19946;49.306;11.350;2022-11-12T07:51:34;193.87;;;186.50;;
595;SDS011;19946;49.306;11.350;2022-11-12T07:54:47;259.67;;;250.57;;
595;SDS011;19946;49.306;11.350;2022-11-12T07:58:05;296.07;;;285.77;;
595;SDS011;19946;49.306;11.350;2022-11-12T08:01:35;297.30;;;286.80;;
595;SDS011;19946;49.306;11.350;2022-11-12T08:04:55;298.93;;;288.13;;
595;SDS011;19946;49.306;11.350;2022-11-12T08:08:15;214.07;;;206.07;;
595;SDS011;19946;49.306;11.350;2022-11-12T08:11:34;239.00;;;230.30;;
595;SDS011;19946;49.306;11.350;2022-11-12T08:14:54;266.20;;;256.40;;
595;SDS011;19946;49.306;11.350;2022-11-12T08:18:13;386.27;;;372.20;;
595;SDS011;19946;49.306;11.350;2022-11-12T08:21:32;372.30;;;359.20;;
595;SDS011;19946;49.306;11.350;2022-11-12T08:24:52;363.13;;;350.63;;
595;SDS011;19946;49.306;11.350;2022-11-12T08:28:11;362.67;;;350.53;;
595;SDS011;19946;49.306;11.350;2022-11-12T08:31:31;284.40;;;274.90;;
595;SDS011;19946;49.306;11.350;2022-11-12T08:34:50;315.67;;;305.07;;
595;SDS011;19946;49.306;11.350;2022-11-12T08:38:09;262.93;;;253.73;;
595;SDS011;19946;49.306;11.350;2022-11-12T08:41:29;419.23;;;404.83;;
595;SDS011;19946;49.306;11.350;2022-11-12T08:44:47;148.27;;;142.27;;
595;SDS011;19946;49.306;11.350;2022-11-12T08:48:07;152.20;;;145.93;;
595;SDS011;19946;49.306;11.350;2022-11-12T08:51:30;118.50;;;113.67;;
595;SDS011;19946;49.306;11.350;2022-11-12T08:54:48;62.20;;;59.20;;
595;SDS011;19946;49.306;11.350;2022-11-12T08:58:07;38.97;;;36.90;;
595;SDS011;19946;49.306;11.350;2022-11-12T09:01:28;32.00;;;30.10;;
595;SDS011;19946;49.306;11.350;2022-11-12T09:04:47;31.33;;;29.10;;
595;SDS011;19946;49.306;11.350;2022-11-12T09:08:07;25.27;;;23.57;;
595;SDS011;19946;49.306;11.350;2022-11-12T09:11:28;26.20;;;24.60;;
595;SDS011;19946;49.306;11.350;2022-11-12T09:14:47;24.17;;;22.63;;
595;SDS011;19946;49.306;11.350;2022-11-12T09:18:09;22.87;;;21.57;;
595;SDS011;19946;49.306;11.350;2022-11-12T09:21:30;23.60;;;22.20;;
595;SDS011;19946;49.306;11.350;2022-11-12T09:24:49;24.23;;;22.73;;
595;SDS011;19946;49.306;11.350;2022-11-12T09:28:11;24.17;;;22.67;;
595;SDS011;19946;49.306;11.350;2022-11-12T09:31:32;24.13;;;22.13;;
595;SDS011;19946;49.306;11.350;2022-11-12T09:34:51;23.53;;;21.90;;
595;SDS011;19946;49.306;11.350;2022-11-12T09:38:10;21.70;;;20.20;;
595;SDS011;19946;49.306;11.350;2022-11-12T09:41:39;27.80;;;26.10;;
595;SDS011;19946;49.306;11.350;2022-11-12T09:48:40;21.30;;;20.20;;
595;SDS011;19946;49.306;11.350;2022-11-12T09:52:20;22.93;;;21.43;;
595;SDS011;19946;49.306;11.350;2022-11-12T09:55:45;22.77;;;21.47;;
595;SDS011;19946;49.306;11.350;2022-11-12T09:59:12;20.77;;;19.50;;
595;SDS011;19946;49.306;11.350;2022-11-12T10:02:35;22.10;;;20.40;;
595;SDS011;19946;49.306;11.350;2022-11-12T10:06:00;20.77;;;19.57;;
595;SDS011;19946;49.306;11.350;2022-11-12T10:09:27;20.47;;;19.37;;
595;SDS011;19946;49.306;11.350;2022-11-12T10:13:41;20.10;;;19.10;;
595;SDS011;19946;49.306;11.350;2022-11-12T10:20:41;19.17;;;18.17;;
595;SDS011;19946;49.306;11.350;2022-11-12T10:24:30;23.43;;;21.80;;
595;SDS011;19946;49.306;11.350;2022-11-12T10:27:54;24.33;;;22.60;;
595;SDS011;19946;49.306;11.350;2022-11-12T10:31:15;22.40;;;20.90;;
595;SDS011;19946;49.306;11.350;2022-11-12T10:34:36;24.37;;;22.47;;
595;SDS011;19946;49.306;11.350;2022-11-12T10:37:59;24.17;;;22.30;;
595;SDS011;19946;49.306;11.350;2022-11-12T10:41:25;22.07;;;20.80;;
595;SDS011;19946;49.306;11.350;2022-11-12T10:44:46;21.23;;;20.03;;
595;SDS011;19946;49.306;11.350;2022-11-12T10:51:57;26.47;;;24.77;;
595;SDS011;19946;49.306;11.350;2022-11-12T10:55:18;25.40;;;23.80;;
595;SDS011;19946;49.306;11.350;2022-11-12T10:58:39;27.23;;;25.37;;
595;SDS011;19946;49.306;11.350;2022-11-12T11:01:59;25.43;;;23.83;;
595;SDS011;19946;49.306;11.350;2022-11-12T11:12:31;26.43;;;25.03;;
595;SDS011;19946;49.306;11.350;2022-11-12T11:16:03;25.73;;;24.33;;
595;SDS011;19946;49.306;11.350;2022-11-12T11:19:30;26.00;;;24.70;;
595;SDS011;19946;49.306;11.350;2022-11-12T11:22:56;29.83;;;27.47;;
595;SDS011;19946;49.306;11.350;2022-11-12T11:30:16;24.50;;;23.27;;
595;SDS011;19946;49.306;11.350;2022-11-12T11:40:34;41.50;;;39.17;;
595;SDS011;19946;49.306;11.350;2022-11-12T11:47:56;25.57;;;23.87;;
595;SDS011;19946;49.306;11.350;2022-11-12T11:51:43;27.00;;;24.53;;
595;SDS011;19946;49.306;11.350;2022-11-12T11:55:13;27.60;;;25.50;;
595;SDS011;19946;49.306;11.350;2022-11-12T12:02:48;30.20;;;26.60;;
595;SDS011;19946;49.306;11.350;2022-11-12T12:06:23;26.90;;;25.10;;
595;SDS011;19946;49.306;11.350;2022-11-12T12:17:11;26.10;;;24.23;;
595;SDS011;19946;49.306;11.350;2022-11-12T12:21:02;26.03;;;23.40;;
595;SDS011;19946;49.306;11.350;2022-11-12T12:27:56;24.47;;;22.60;;
595;SDS011;19946;49.306;11.350;2022-11-12T12:31:39;25.00;;;23.03;;
595;SDS011;19946;49.306;11.350;2022-11-12T12:38:30;25.40;;;23.53;;
595;SDS011;19946;49.306;11.350;2022-11-12T12:42:03;27.40;;;24.77;;
595;SDS011;19946;49.306;11.350;2022-11-12T12:45:35;27.50;;;24.60;;
595;SDS011;19946;49.306;11.350;2022-11-12T12:49:01;27.73;;;25.53;;
595;SDS011;19946;49.306;11.350;2022-11-12T12:52:22;28.57;;;26.67;;
595;SDS011;19946;49.306;11.350;2022-11-12T12:55:42;28.47;;;26.17;;
595;SDS011;19946;49.306;11.350;2022-11-12T12:59:17;27.37;;;25.60;;
595;SDS011;19946;49.306;11.350;2022-11-12T13:02:37;26.50;;;24.80;;
595;SDS011;19946;49.306;11.350;2022-11-12T13:06:07;26.53;;;24.50;;
595;SDS011;19946;49.306;11.350;2022-11-12T13:09:32;26.63;;;24.37;;
595;SDS011;19946;49.306;11.350;2022-11-12T13:13:07;28.27;;;25.43;;
595;SDS011;19946;49.306;11.350;2022-11-12T13:30:58;23.33;;;21.43;;
595;SDS011;19946;49.306;11.350;2022-11-12T13:34:22;24.20;;;22.10;;
595;SDS011;19946;49.306;11.350;2022-11-12T13:38:02;24.70;;;22.20;;
595;SDS011;19946;49.306;11.350;2022-11-12T13:41:33;23.47;;;21.13;;
595;SDS011;19946;49.306;11.350;2022-11-12T13:45:19;23.97;;;21.83;;
595;SDS011;19946;49.306;11.350;2022-11-12T13:48:56;24.67;;;22.37;;
595;SDS011;19946;49.306;11.350;2022-11-12T13:52:18;23.33;;;21.40;;
595;SDS011;19946;49.306;11.350;2022-11-12T13:55:37;22.97;;;21.33;;
595;SDS011;19946;49.306;11.350;2022-11-12T13:59:12;24.33;;;21.27;;
595;SDS011;19946;49.306;11.350;2022-11-12T14:02:33;22.60;;;20.77;;
595;SDS011;19946;49.306;11.350;2022-11-12T14:21:17;25.20;;;23.90;;
595;SDS011;19946;49.306;11.350;2022-11-12T14:24:38;21.77;;;20.87;;
595;SDS011;19946;49.306;11.350;2022-11-12T14:27:57;21.50;;;20.60;;
595;SDS011;19946;49.306;11.350;2022-11-12T14:31:19;21.00;;;20.20;;
595;SDS011;19946;49.306;11.350;2022-11-12T14:34:42;19.30;;;18.60;;
595;SDS011;19946;49.306;11.350;2022-11-12T14:38:20;18.60;;;17.90;;
595;SDS011;19946;49.306;11.350;2022-11-12T14:41:44;20.23;;;19.53;;
595;SDS011;19946;49.306;11.350;2022-11-12T14:45:09;20.07;;;19.37;;
595;SDS011;19946;49.306;11.350;2022-11-12T14:48:54;21.40;;;20.60;;
595;SDS011;19946;49.306;11.350;2022-11-12T14:52:19;19.10;;;18.50;;
595;SDS011;19946;49.306;11.350;2022-11-12T14:55:43;20.87;;;20.10;;
595;SDS011;19946;49.306;11.350;2022-11-12T14:59:09;24.33;;;23.43;;
595;SDS011;19946;49.306;11.350;2022-11-12T15:02:31;22.00;;;21.20;;
595;SDS011;19946;49.306;11.350;2022-11-12T15:05:54;22.43;;;21.63;;
595;SDS011;19946;49.306;11.350;2022-11-12T15:09:35;22.50;;;21.70;;
595;SDS011;19946;49.306;11.350;2022-11-12T15:19:49;37.40;;;36.00;;
595;SDS011;19946;49.306;11.350;2022-11-12T15:23:17;43.40;;;41.70;;
595;SDS011;19946;49.306;11.350;2022-11-12T15:26:38;53.90;;;51.90;;
595;SDS011;19946;49.306;11.350;2022-11-12T15:30:07;45.97;;;44.27;;
595;SDS011;19946;49.306;11.350;2022-11-12T15:33:43;74.27;;;71.63;;
595;SDS011;19946;49.306;11.350;2022-11-12T15:37:03;48.43;;;46.70;;
595;SDS011;19946;49.306;11.350;2022-11-12T15:40:25;91.73;;;88.63;;
595;SDS011;19946;49.306;11.350;2022-11-12T15:43:45;53.57;;;51.67;;
595;SDS011;19946;49.306;11.350;2022-11-12T15:47:04;58.47;;;56.43;;
595;SDS011;19946;49.306;11.350;2022-11-12T15:50:29;98.83;;;95.60;;
595;SDS011;19946;49.306;11.350;2022-11-12T15:53:49;136.83;;;132.53;;
595;SDS011;19946;49.306;11.350;2022-11-12T15:57:13;81.60;;;79.00;;
595;SDS011;19946;49.306;11.350;2022-11-12T16:00:36;69.03;;;66.73;;
595;SDS011;19946;49.306;11.350;2022-11-12T16:03:56;70.80;;;68.40;;
595;SDS011;19946;49.306;11.350;2022-11-12T16:07:15;127.67;;;123.70;;
595;SDS011;19946;49.306;11.350;2022-11-12T16:10:35;156.20;;;151.50;;
595;SDS011;19946;49.306;11.350;2022-11-12T16:13:55;167.23;;;162.17;;
595;SDS011;19946;49.306;11.350;2022-11-12T16:17:15;148.47;;;144.00;;
595;SDS011;19946;49.306;11.350;2022-11-12T16:20:35;103.50;;;100.30;;
595;SDS011;19946;49.306;11.350;2022-11-12T16:23:55;143.00;;;138.60;;
595;SDS011;19946;49.306;11.350;2022-11-12T16:27:13;176.50;;;171.10;;
595;SDS011;19946;49.306;11.350;2022-11-12T16:30:33;232.80;;;226.00;;
595;SDS011;19946;49.306;11.350;2022-11-12T16:33:52;225.07;;;218.47;;
595;SDS011;19946;49.306;11.350;2022-11-12T16:37:11;194.90;;;189.00;;
595;SDS011;19946;49.306;11.350;2022-11-12T16:40:31;220.43;;;213.83;;
595;SDS011;19946;49.306;11.350;2022-11-12T16:43:50;144.70;;;140.10;;
595;SDS011;19946;49.306;11.350;2022-11-12T16:47:10;121.97;;;118.17;;
595;SDS011;19946;49.306;11.350;2022-11-12T16:50:29;207.23;;;201.30;;
595;SDS011;19946;49.306;11.350;2022-11-12T16:53:48;217.37;;;211.23;;
595;SDS011;19946;49.306;11.350;2022-11-12T16:57:07;196.70;;;191.10;;
595;SDS011;19946;49.306;11.350;2022-11-12T17:00:28;179.47;;;174.27;;
595;SDS011;19946;49.306;11.350;2022-11-12T17:03:48;162.63;;;157.83;;
595;SDS011;19946;49.306;11.350;2022-11-12T17:07:08;199.43;;;193.67;;
595;SDS011;19946;49.306;11.350;2022-11-12T17:10:27;176.83;;;171.73;;
595;SDS011;19946;49.306;11.350;2022-11-12T17:13:46;218.67;;;212.50;;
595;SDS011;19946;49.306;11.350;2022-11-12T17:17:05;267.27;;;259.97;;
595;SDS011;19946;49.306;11.350;2022-11-12T17:20:24;225.70;;;219.40;;
595;SDS011;19946;49.306;11.350;2022-11-12T17:23:43;255.40;;;248.40;;
595;SDS011;19946;49.306;11.350;2022-11-12T17:27:02;227.90;;;221.43;;
595;SDS011;19946;49.306;11.350;2022-11-12T17:30:22;271.83;;;264.23;;
595;SDS011;19946;49.306;11.350;2022-11-12T17:33:50;362.40;;;351.93;;
595;SDS011;19946;49.306;11.350;2022-11-12T17:37:10;386.47;;;375.37;;
595;SDS011;19946;49.306;11.350;2022-11-12T17:40:29;365.53;;;355.13;;
595;SDS011;19946;49.306;11.350;2022-11-12T17:43:52;446.53;;;433.23;;
595;SDS011;19946;49.306;11.350;2022-11-12T17:47:12;521.00;;;505.63;;
595;SDS011;19946;49.306;11.350;2022-11-12T17:50:31;525.63;;;510.07;;
595;SDS011;19946;49.306;11.350;2022-11-12T17:53:50;548.70;;;532.90;;
595;SDS011;19946;49.306;11.350;2022-11-12T17:57:09;537.43;;;522.17;;
595;SDS011;19946;49.306;11.350;2022-11-12T18:00:28;490.67;;;476.93;;
595;SDS011;19946;49.306;11.350;2022-11-12T18:03:48;396.20;;;385.17;;
595;SDS011;19946;49.306;11.350;2022-11-12T18:07:11;261.13;;;253.97;;
595;SDS011;19946;49.306;11.350;2022-11-12T18:10:30;325.27;;;316.43;;
595;SDS011;19946;49.306;11.350;2022-11-12T18:13:49;319.17;;;310.37;;
595;SDS011;19946;49.306;11.350;2022-11-12T18:17:08;353.03;;;343.27;;
595;SDS011;19946;49.306;11.350;2022-11-12T18:20:27;247.27;;;240.37;;
595;SDS011;19946;49.306;11.350;2022-11-12T18:23:47;191.90;;;186.30;;
595;SDS011;19946;49.306;11.350;2022-11-12T18:27:05;301.30;;;293.03;;
595;SDS011;19946;49.306;11.350;2022-11-12T18:30:24;275.80;;;268.10;;
595;SDS011;19946;49.306;11.350;2022-11-12T18:33:43;315.43;;;306.43;;
595;SDS011;19946;49.306;11.350;2022-11-12T18:37:02;388.60;;;377.40;;
595;SDS011;19946;49.306;11.350;2022-11-12T18:40:21;372.70;;;362.00;;
595;SDS011;19946;49.306;11.350;2022-11-12T18:43:41;301.00;;;292.47;;
595;SDS011;19946;49.306;11.350;2022-11-12T18:46:59;278.97;;;271.03;;
595;SDS011;19946;49.306;11.350;2022-11-12T18:50:18;213.93;;;207.73;;
595;SDS011;19946;49.306;11.350;2022-11-12T18:53:37;256.00;;;248.80;;
595;SDS011;19946;49.306;11.350;2022-11-12T18:56:57;356.37;;;345.97;;
595;SDS011;19946;49.306;11.350;2022-11-12T19:00:17;476.53;;;462.43;;
595;SDS011;19946;49.306;11.350;2022-11-12T19:03:36;481.63;;;467.93;;
595;SDS011;19946;49.306;11.350;2022-11-12T19:06:55;467.97;;;454.80;;
595;SDS011;19946;49.306;11.350;2022-11-12T19:10:14;437.40;;;424.80;;
595;SDS011;19946;49.306;11.350;2022-11-12T19:13:33;463.60;;;450.27;;
595;SDS011;19946;49.306;11.350;2022-11-12T19:16:52;450.77;;;437.97;;
595;SDS011;19946;49.306;11.350;2022-11-12T19:20:11;432.83;;;420.43;;
595;SDS011;19946;49.306;11.350;2022-11-12T19:23:30;332.47;;;323.27;;
595;SDS011;19946;49.306;11.350;2022-11-12T19:26:49;353.80;;;343.90;;
595;SDS011;19946;49.306;11.350;2022-11-12T19:30:09;289.93;;;281.73;;
595;SDS011;19946;49.306;11.350;2022-11-12T19:33:29;490.57;;;476.07;;
595;SDS011;19946;49.306;11.350;2022-11-12T19:36:47;387.27;;;376.03;;
595;SDS011;19946;49.306;11.350;2022-11-12T19:40:06;274.83;;;267.03;;
595;SDS011;19946;49.306;11.350;2022-11-12T19:43:26;315.47;;;306.63;;
595;SDS011;19946;49.306;11.350;2022-11-12T19:46:46;290.00;;;281.93;;
595;SDS011;19946;49.306;11.350;2022-11-12T19:50:05;338.40;;;328.93;;
595;SDS011;19946;49.306;11.350;2022-11-12T19:53:28;388.97;;;378.10;;
595;SDS011;19946;49.306;11.350;2022-11-12T19:56:47;324.03;;;314.93;;
595;SDS011;19946;49.306;11.350;2022-11-12T20:00:07;207.93;;;201.87;;
595;SDS011;19946;49.306;11.350;2022-11-12T20:03:28;188.63;;;183.13;;
595;SDS011;19946;49.306;11.350;2022-11-12T20:06:47;263.93;;;256.73;;
595;SDS011;19946;49.306;11.350;2022-11-12T20:10:06;313.87;;;305.20;;
595;SDS011;19946;49.306;11.350;2022-11-12T20:13:25;421.13;;;409.10;;
595;SDS011;19946;49.306;11.350;2022-11-12T20:16:44;369.50;;;359.07;;
595;SDS011;19946;49.306;11.350;2022-11-12T20:20:04;302.07;;;293.83;;
595;SDS011;19946;49.306;11.350;2022-11-12T20:23:24;301.27;;;293.07;;
595;SDS011;19946;49.306;11.350;2022-11-12T20:26:43;324.77;;;315.77;;
595;SDS011;19946;49.306;11.350;2022-11-12T20:30:03;277.37;;;269.73;;
595;SDS011;19946;49.306;11.350;2022-11-12T20:33:22;327.13;;;318.03;;
595;SDS011;19946;49.306;11.350;2022-11-12T20:36:41;376.63;;;365.93;;
595;SDS011;19946;49.306;11.350;2022-11-12T20:40:00;390.30;;;379.00;;
595;SDS011;19946;49.306;11.350;2022-11-12T20:43:19;442.90;;;429.70;;
595;SDS011;19946;49.306;11.350;2022-11-12T20:46:38;409.50;;;397.40;;
595;SDS011;19946;49.306;11.350;2022-11-12T20:49:57;335.87;;;326.03;;
595;SDS011;19946;49.306;11.350;2022-11-12T20:53:16;331.17;;;321.47;;
595;SDS011;19946;49.306;11.350;2022-11-12T20:56:35;318.97;;;309.77;;
595;SDS011;19946;49.306;11.350;2022-11-12T20:59:54;218.53;;;212.23;;
595;SDS011;19946;49.306;11.350;2022-11-12T21:03:13;277.97;;;270.07;;
595;SDS011;19946;49.306;11.350;2022-11-12T21:06:32;289.40;;;281.17;;
595;SDS011;19946;49.306;11.350;2022-11-12T21:09:51;298.63;;;289.93;;
595;SDS011;19946;49.306;11.350;2022-11-12T21:13:10;367.13;;;356.20;;
595;SDS011;19946;49.306;11.350;2022-11-12T21:16:29;405.87;;;393.67;;
595;SDS011;19946;49.306;11.350;2022-11-12T21:19:48;385.33;;;373.93;;
595;SDS011;19946;49.306;11.350;2022-11-12T21:23:07;357.03;;;346.50;;
595;SDS011;19946;49.306;11.350;2022-11-12T21:26:27;358.67;;;348.00;;
595;SDS011;19946;49.306;11.350;2022-11-12T21:29:45;401.87;;;390.37;;
595;SDS011;19946;49.306;11.350;2022-11-12T21:33:06;344.40;;;334.53;;
595;SDS011;19946;49.306;11.350;2022-11-12T21:36:28;289.43;;;281.13;;